sensor_id;sensor_type;location;lat;lon;timestamp;P1;durP1;ratioP1;P2;durP2;ratioP2
49828;SDS011;35723;51.194;5.112;2023-02-28T00:00:26;18.88;;;8.32;;
49828;SDS011;35723;51.194;5.112;2023-02-28T00:02:52;22.88;;;8.40;;
49828;SDS011;35723;51.194;5.112;2023-02-28T00:05:19;20.75;;;8.93;;
49828;SDS011;35723;51.194;5.112;2023-02-28T00:07:46;21.38;;;8.40;;
49828;SDS011;35723;51.194;5.112;2023-02-28T00:10:14;19.77;;;8.68;;
49828;SDS011;35723;51.194;5.112;2023-02-28T00:12:49;19.30;;;8.50;;
49828;SDS011;35723;51.194;5.112;2023-02-28T00:15:16;19.83;;;8.82;;
49828;SDS011;35723;51.194;5.112;2023-02-28T00:17:42;20.33;;;8.60;;
49828;SDS011;35723;51.194;5.112;2023-02-28T00:20:08;20.30;;;9.35;;
49828;SDS011;35723;51.194;5.112;2023-02-28T00:22:35;18.75;;;8.60;;
49828;SDS011;35723;51.194;5.112;2023-02-28T00:25:02;18.05;;;8.07;;
49828;SDS011;35723;51.194;5.112;2023-02-28T00:27:29;19.92;;;8.77;;
49828;SDS011;35723;51.194;5.112;2023-02-28T00:29:55;20.48;;;9.07;;
49828;SDS011;35723;51.194;5.112;2023-02-28T00:32:20;21.88;;;9.38;;
49828;SDS011;35723;51.194;5.112;2023-02-28T00:34:46;26.20;;;10.15;;
49828;SDS011;35723;51.194;5.112;2023-02-28T00:37:12;21.25;;;9.40;;
49828;SDS011;35723;51.194;5.112;2023-02-28T00:39:38;23.92;;;9.75;;
49828;SDS011;35723;51.194;5.112;2023-02-28T00:42:04;25.67;;;10.18;;
49828;SDS011;35723;51.194;5.112;2023-02-28T00:44:31;22.67;;;10.18;;
49828;SDS011;35723;51.194;5.112;2023-02-28T00:46:57;24.40;;;9.98;;
49828;SDS011;35723;51.194;5.112;2023-02-28T00:49:23;21.67;;;10.00;;
49828;SDS011;35723;51.194;5.112;2023-02-28T00:51:50;26.63;;;10.68;;
49828;SDS011;35723;51.194;5.112;2023-02-28T00:54:16;23.70;;;10.25;;
49828;SDS011;35723;51.194;5.112;2023-02-28T00:56:41;22.75;;;10.27;;
49828;SDS011;35723;51.194;5.112;2023-02-28T00:59:07;21.85;;;10.77;;
49828;SDS011;35723;51.194;5.112;2023-02-28T01:01:33;25.40;;;10.85;;
49828;SDS011;35723;51.194;5.112;2023-02-28T01:03:59;24.08;;;10.77;;
49828;SDS011;35723;51.194;5.112;2023-02-28T01:06:25;22.95;;;11.05;;
49828;SDS011;35723;51.194;5.112;2023-02-28T01:08:51;24.17;;;11.02;;
49828;SDS011;35723;51.194;5.112;2023-02-28T01:11:17;22.15;;;10.85;;
49828;SDS011;35723;51.194;5.112;2023-02-28T01:13:43;25.40;;;11.05;;
49828;SDS011;35723;51.194;5.112;2023-02-28T01:16:10;27.15;;;11.82;;
49828;SDS011;35723;51.194;5.112;2023-02-28T01:18:37;21.77;;;10.77;;
49828;SDS011;35723;51.194;5.112;2023-02-28T01:21:03;25.38;;;10.85;;
49828;SDS011;35723;51.194;5.112;2023-02-28T01:23:30;24.92;;;11.30;;
49828;SDS011;35723;51.194;5.112;2023-02-28T01:25:56;28.02;;;11.30;;
49828;SDS011;35723;51.194;5.112;2023-02-28T01:28:21;27.42;;;11.02;;
49828;SDS011;35723;51.194;5.112;2023-02-28T01:30:48;25.45;;;11.18;;
49828;SDS011;35723;51.194;5.112;2023-02-28T01:33:14;26.63;;;11.55;;
49828;SDS011;35723;51.194;5.112;2023-02-28T01:35:40;26.23;;;11.85;;
49828;SDS011;35723;51.194;5.112;2023-02-28T01:38:06;27.02;;;11.93;;
49828;SDS011;35723;51.194;5.112;2023-02-28T01:40:32;24.83;;;11.23;;
49828;SDS011;35723;51.194;5.112;2023-02-28T01:42:58;23.58;;;10.77;;
49828;SDS011;35723;51.194;5.112;2023-02-28T01:45:27;25.90;;;11.23;;
49828;SDS011;35723;51.194;5.112;2023-02-28T01:47:56;26.52;;;11.43;;
49828;SDS011;35723;51.194;5.112;2023-02-28T01:50:25;25.08;;;11.32;;
49828;SDS011;35723;51.194;5.112;2023-02-28T01:52:55;24.95;;;11.48;;
49828;SDS011;35723;51.194;5.112;2023-02-28T01:55:24;25.02;;;11.15;;
49828;SDS011;35723;51.194;5.112;2023-02-28T01:57:54;29.02;;;11.13;;
49828;SDS011;35723;51.194;5.112;2023-02-28T02:00:23;26.48;;;10.52;;
49828;SDS011;35723;51.194;5.112;2023-02-28T02:02:53;24.02;;;10.98;;
49828;SDS011;35723;51.194;5.112;2023-02-28T02:05:23;26.42;;;11.32;;
49828;SDS011;35723;51.194;5.112;2023-02-28T02:07:56;24.38;;;10.93;;
49828;SDS011;35723;51.194;5.112;2023-02-28T02:10:33;23.10;;;10.65;;
49828;SDS011;35723;51.194;5.112;2023-02-28T02:13:13;25.40;;;10.90;;
49828;SDS011;35723;51.194;5.112;2023-02-28T02:24:09;24.73;;;10.25;;
49828;SDS011;35723;51.194;5.112;2023-02-28T02:38:31;22.02;;;10.02;;
49828;SDS011;35723;51.194;5.112;2023-02-28T02:41:15;23.48;;;9.98;;
49828;SDS011;35723;51.194;5.112;2023-02-28T02:46:34;23.23;;;10.32;;
49828;SDS011;35723;51.194;5.112;2023-02-28T02:49:05;25.48;;;10.27;;
49828;SDS011;35723;51.194;5.112;2023-02-28T02:51:34;25.73;;;10.68;;
49828;SDS011;35723;51.194;5.112;2023-02-28T02:57:03;22.38;;;10.00;;
49828;SDS011;35723;51.194;5.112;2023-02-28T02:59:33;21.90;;;9.98;;
49828;SDS011;35723;51.194;5.112;2023-02-28T03:02:03;22.77;;;9.75;;
49828;SDS011;35723;51.194;5.112;2023-02-28T03:04:32;23.80;;;10.75;;
49828;SDS011;35723;51.194;5.112;2023-02-28T03:07:03;22.88;;;10.25;;
49828;SDS011;35723;51.194;5.112;2023-02-28T03:09:29;20.88;;;10.25;;
49828;SDS011;35723;51.194;5.112;2023-02-28T03:11:59;24.23;;;10.35;;
49828;SDS011;35723;51.194;5.112;2023-02-28T03:20:06;22.90;;;10.35;;
49828;SDS011;35723;51.194;5.112;2023-02-28T03:22:47;22.02;;;10.23;;
49828;SDS011;35723;51.194;5.112;2023-02-28T03:25:33;22.30;;;10.00;;
49828;SDS011;35723;51.194;5.112;2023-02-28T03:33:15;20.75;;;9.48;;
49828;SDS011;35723;51.194;5.112;2023-02-28T03:35:53;20.88;;;8.95;;
49828;SDS011;35723;51.194;5.112;2023-02-28T03:38:27;23.40;;;10.93;;
49828;SDS011;35723;51.194;5.112;2023-02-28T03:41:05;22.42;;;9.98;;
49828;SDS011;35723;51.194;5.112;2023-02-28T03:43:35;24.73;;;10.10;;
49828;SDS011;35723;51.194;5.112;2023-02-28T03:46:07;22.48;;;9.98;;
49828;SDS011;35723;51.194;5.112;2023-02-28T03:48:39;22.13;;;10.15;;
49828;SDS011;35723;51.194;5.112;2023-02-28T03:51:07;25.13;;;11.20;;
49828;SDS011;35723;51.194;5.112;2023-02-28T03:53:36;22.20;;;10.13;;
49828;SDS011;35723;51.194;5.112;2023-02-28T03:56:16;21.55;;;9.75;;
49828;SDS011;35723;51.194;5.112;2023-02-28T04:01:41;22.20;;;10.23;;
49828;SDS011;35723;51.194;5.112;2023-02-28T04:04:09;21.08;;;9.88;;
49828;SDS011;35723;51.194;5.112;2023-02-28T04:06:36;21.50;;;9.85;;
49828;SDS011;35723;51.194;5.112;2023-02-28T04:09:03;21.20;;;9.73;;
49828;SDS011;35723;51.194;5.112;2023-02-28T04:11:32;21.90;;;10.15;;
49828;SDS011;35723;51.194;5.112;2023-02-28T04:14:00;21.25;;;9.93;;
49828;SDS011;35723;51.194;5.112;2023-02-28T04:16:30;22.63;;;9.98;;
49828;SDS011;35723;51.194;5.112;2023-02-28T04:18:56;24.15;;;10.50;;
49828;SDS011;35723;51.194;5.112;2023-02-28T04:21:27;22.27;;;9.82;;
49828;SDS011;35723;51.194;5.112;2023-02-28T04:23:54;24.13;;;10.13;;
49828;SDS011;35723;51.194;5.112;2023-02-28T04:26:20;25.45;;;10.85;;
49828;SDS011;35723;51.194;5.112;2023-02-28T04:28:46;24.15;;;10.32;;
49828;SDS011;35723;51.194;5.112;2023-02-28T04:31:11;20.80;;;9.70;;
49828;SDS011;35723;51.194;5.112;2023-02-28T04:33:37;20.92;;;10.02;;
49828;SDS011;35723;51.194;5.112;2023-02-28T04:36:04;20.45;;;9.63;;
49828;SDS011;35723;51.194;5.112;2023-02-28T04:38:33;23.83;;;9.82;;
49828;SDS011;35723;51.194;5.112;2023-02-28T04:41:03;20.75;;;9.75;;
49828;SDS011;35723;51.194;5.112;2023-02-28T04:43:29;23.35;;;9.95;;
49828;SDS011;35723;51.194;5.112;2023-02-28T04:45:55;20.52;;;9.98;;
49828;SDS011;35723;51.194;5.112;2023-02-28T04:48:23;22.52;;;9.98;;
49828;SDS011;35723;51.194;5.112;2023-02-28T04:50:59;23.45;;;9.80;;
49828;SDS011;35723;51.194;5.112;2023-02-28T04:53:26;21.15;;;9.45;;
49828;SDS011;35723;51.194;5.112;2023-02-28T04:55:54;22.70;;;9.73;;
49828;SDS011;35723;51.194;5.112;2023-02-28T04:58:20;23.08;;;10.00;;
49828;SDS011;35723;51.194;5.112;2023-02-28T05:00:48;22.52;;;9.88;;
49828;SDS011;35723;51.194;5.112;2023-02-28T05:03:17;21.77;;;9.75;;
49828;SDS011;35723;51.194;5.112;2023-02-28T05:05:44;22.08;;;9.90;;
49828;SDS011;35723;51.194;5.112;2023-02-28T05:08:09;22.05;;;9.63;;
49828;SDS011;35723;51.194;5.112;2023-02-28T05:10:35;21.13;;;9.75;;
49828;SDS011;35723;51.194;5.112;2023-02-28T05:13:01;20.90;;;10.00;;
49828;SDS011;35723;51.194;5.112;2023-02-28T05:15:27;21.80;;;9.88;;
49828;SDS011;35723;51.194;5.112;2023-02-28T05:17:53;20.42;;;9.75;;
49828;SDS011;35723;51.194;5.112;2023-02-28T05:20:18;22.02;;;9.60;;
49828;SDS011;35723;51.194;5.112;2023-02-28T05:22:45;21.85;;;9.82;;
49828;SDS011;35723;51.194;5.112;2023-02-28T05:25:12;23.80;;;9.90;;
49828;SDS011;35723;51.194;5.112;2023-02-28T05:27:41;26.40;;;10.10;;
49828;SDS011;35723;51.194;5.112;2023-02-28T05:30:07;21.60;;;9.85;;
49828;SDS011;35723;51.194;5.112;2023-02-28T05:32:36;21.80;;;9.98;;
49828;SDS011;35723;51.194;5.112;2023-02-28T05:35:09;22.85;;;10.25;;
49828;SDS011;35723;51.194;5.112;2023-02-28T05:37:36;21.83;;;9.68;;
49828;SDS011;35723;51.194;5.112;2023-02-28T05:40:03;23.80;;;9.80;;
49828;SDS011;35723;51.194;5.112;2023-02-28T05:42:36;23.42;;;10.90;;
49828;SDS011;35723;51.194;5.112;2023-02-28T05:45:03;22.15;;;9.90;;
49828;SDS011;35723;51.194;5.112;2023-02-28T05:47:29;21.95;;;9.85;;
49828;SDS011;35723;51.194;5.112;2023-02-28T05:49:56;23.15;;;10.13;;
49828;SDS011;35723;51.194;5.112;2023-02-28T05:52:21;22.55;;;9.57;;
49828;SDS011;35723;51.194;5.112;2023-02-28T05:54:47;22.27;;;9.70;;
49828;SDS011;35723;51.194;5.112;2023-02-28T05:57:13;24.00;;;9.63;;
49828;SDS011;35723;51.194;5.112;2023-02-28T05:59:38;23.05;;;10.07;;
49828;SDS011;35723;51.194;5.112;2023-02-28T06:02:05;23.70;;;9.55;;
49828;SDS011;35723;51.194;5.112;2023-02-28T06:04:37;21.30;;;9.47;;
49828;SDS011;35723;51.194;5.112;2023-02-28T06:07:02;24.13;;;10.00;;
49828;SDS011;35723;51.194;5.112;2023-02-28T06:09:28;21.25;;;9.05;;
49828;SDS011;35723;51.194;5.112;2023-02-28T06:11:54;23.95;;;9.75;;
49828;SDS011;35723;51.194;5.112;2023-02-28T06:14:22;19.00;;;8.82;;
49828;SDS011;35723;51.194;5.112;2023-02-28T06:16:47;18.95;;;8.88;;
49828;SDS011;35723;51.194;5.112;2023-02-28T06:19:13;21.45;;;9.30;;
49828;SDS011;35723;51.194;5.112;2023-02-28T06:21:40;21.10;;;9.40;;
49828;SDS011;35723;51.194;5.112;2023-02-28T06:24:10;22.90;;;9.70;;
49828;SDS011;35723;51.194;5.112;2023-02-28T06:30:04;21.15;;;9.52;;
49828;SDS011;35723;51.194;5.112;2023-02-28T06:35:17;21.90;;;9.13;;
49828;SDS011;35723;51.194;5.112;2023-02-28T06:37:42;20.35;;;9.40;;
49828;SDS011;35723;51.194;5.112;2023-02-28T06:43:32;21.40;;;9.63;;
49828;SDS011;35723;51.194;5.112;2023-02-28T06:46:00;23.45;;;10.02;;
49828;SDS011;35723;51.194;5.112;2023-02-28T06:48:27;22.02;;;9.68;;
49828;SDS011;35723;51.194;5.112;2023-02-28T06:51:10;21.25;;;9.57;;
49828;SDS011;35723;51.194;5.112;2023-02-28T06:53:45;22.70;;;10.88;;
49828;SDS011;35723;51.194;5.112;2023-02-28T06:56:11;25.25;;;11.27;;
49828;SDS011;35723;51.194;5.112;2023-02-28T06:58:39;26.02;;;11.40;;
49828;SDS011;35723;51.194;5.112;2023-02-28T07:01:05;28.92;;;12.40;;
49828;SDS011;35723;51.194;5.112;2023-02-28T07:03:32;23.25;;;10.20;;
49828;SDS011;35723;51.194;5.112;2023-02-28T07:05:58;21.98;;;10.10;;
49828;SDS011;35723;51.194;5.112;2023-02-28T07:08:24;21.65;;;10.13;;
49828;SDS011;35723;51.194;5.112;2023-02-28T07:10:54;26.17;;;9.95;;
49828;SDS011;35723;51.194;5.112;2023-02-28T07:16:30;23.08;;;9.93;;
49828;SDS011;35723;51.194;5.112;2023-02-28T07:18:55;27.77;;;10.40;;
49828;SDS011;35723;51.194;5.112;2023-02-28T07:21:21;21.42;;;9.32;;
49828;SDS011;35723;51.194;5.112;2023-02-28T07:23:47;22.35;;;9.48;;
49828;SDS011;35723;51.194;5.112;2023-02-28T07:26:14;20.67;;;8.80;;
49828;SDS011;35723;51.194;5.112;2023-02-28T07:28:42;19.60;;;8.50;;
49828;SDS011;35723;51.194;5.112;2023-02-28T07:31:08;21.42;;;8.70;;
49828;SDS011;35723;51.194;5.112;2023-02-28T07:33:35;18.70;;;8.55;;
49828;SDS011;35723;51.194;5.112;2023-02-28T07:36:02;20.13;;;8.50;;
49828;SDS011;35723;51.194;5.112;2023-02-28T07:38:35;19.38;;;8.50;;
49828;SDS011;35723;51.194;5.112;2023-02-28T07:41:02;20.02;;;8.52;;
49828;SDS011;35723;51.194;5.112;2023-02-28T07:46:08;19.63;;;8.02;;
49828;SDS011;35723;51.194;5.112;2023-02-28T07:49:17;19.20;;;7.97;;
49828;SDS011;35723;51.194;5.112;2023-02-28T07:51:42;17.42;;;7.50;;
49828;SDS011;35723;51.194;5.112;2023-02-28T07:54:30;18.60;;;7.38;;
49828;SDS011;35723;51.194;5.112;2023-02-28T07:59:41;15.95;;;6.90;;
49828;SDS011;35723;51.194;5.112;2023-02-28T08:02:09;16.52;;;6.75;;
49828;SDS011;35723;51.194;5.112;2023-02-28T08:04:39;21.17;;;7.03;;
49828;SDS011;35723;51.194;5.112;2023-02-28T08:07:21;15.45;;;6.60;;
49828;SDS011;35723;51.194;5.112;2023-02-28T08:33:07;15.93;;;5.68;;
49828;SDS011;35723;51.194;5.112;2023-02-28T10:38:21;7.70;;;2.90;;
49828;SDS011;35723;51.194;5.112;2023-02-28T10:41:05;8.18;;;3.03;;
49828;SDS011;35723;51.194;5.112;2023-02-28T10:53:52;7.00;;;3.25;;
49828;SDS011;35723;51.194;5.112;2023-02-28T10:56:22;5.70;;;2.97;;
49828;SDS011;35723;51.194;5.112;2023-02-28T11:05:30;7.10;;;3.08;;
49828;SDS011;35723;51.194;5.112;2023-02-28T11:08:24;10.35;;;3.63;;
49828;SDS011;35723;51.194;5.112;2023-02-28T11:11:04;7.65;;;3.45;;
49828;SDS011;35723;51.194;5.112;2023-02-28T11:13:32;9.00;;;3.58;;
49828;SDS011;35723;51.194;5.112;2023-02-28T11:16:03;7.97;;;3.17;;
49828;SDS011;35723;51.194;5.112;2023-02-28T11:18:34;8.98;;;3.05;;
49828;SDS011;35723;51.194;5.112;2023-02-28T11:24:41;6.82;;;3.10;;
49828;SDS011;35723;51.194;5.112;2023-02-28T11:30:33;7.68;;;2.92;;
49828;SDS011;35723;51.194;5.112;2023-02-28T11:36:23;6.18;;;3.00;;
49828;SDS011;35723;51.194;5.112;2023-02-28T11:38:54;7.30;;;3.13;;
49828;SDS011;35723;51.194;5.112;2023-02-28T11:54:09;9.25;;;3.08;;
49828;SDS011;35723;51.194;5.112;2023-02-28T12:00:40;6.85;;;3.10;;
49828;SDS011;35723;51.194;5.112;2023-02-28T12:15:13;7.95;;;3.20;;
49828;SDS011;35723;51.194;5.112;2023-02-28T12:25:54;9.63;;;3.50;;
49828;SDS011;35723;51.194;5.112;2023-02-28T12:28:28;7.90;;;3.40;;
49828;SDS011;35723;51.194;5.112;2023-02-28T12:31:21;5.45;;;3.10;;
49828;SDS011;35723;51.194;5.112;2023-02-28T12:36:52;7.88;;;3.08;;
49828;SDS011;35723;51.194;5.112;2023-02-28T12:39:23;7.07;;;2.90;;
49828;SDS011;35723;51.194;5.112;2023-02-28T12:41:53;6.50;;;3.10;;
49828;SDS011;35723;51.194;5.112;2023-02-28T12:47:00;6.22;;;3.15;;
49828;SDS011;35723;51.194;5.112;2023-02-28T12:49:31;9.50;;;3.33;;
49828;SDS011;35723;51.194;5.112;2023-02-28T12:52:02;9.10;;;3.40;;
49828;SDS011;35723;51.194;5.112;2023-02-28T12:54:35;8.63;;;3.22;;
49828;SDS011;35723;51.194;5.112;2023-02-28T12:57:22;11.13;;;3.85;;
49828;SDS011;35723;51.194;5.112;2023-02-28T13:00:02;8.75;;;3.55;;
49828;SDS011;35723;51.194;5.112;2023-02-28T13:11:02;8.88;;;3.60;;
49828;SDS011;35723;51.194;5.112;2023-02-28T13:13:29;9.70;;;3.80;;
49828;SDS011;35723;51.194;5.112;2023-02-28T13:16:00;7.50;;;3.63;;
49828;SDS011;35723;51.194;5.112;2023-02-28T13:21:01;9.48;;;3.80;;
49828;SDS011;35723;51.194;5.112;2023-02-28T13:23:37;11.32;;;3.78;;
49828;SDS011;35723;51.194;5.112;2023-02-28T13:26:06;10.05;;;3.67;;
49828;SDS011;35723;51.194;5.112;2023-02-28T13:31:18;7.05;;;3.78;;
49828;SDS011;35723;51.194;5.112;2023-02-28T13:46:30;11.30;;;4.07;;
49828;SDS011;35723;51.194;5.112;2023-02-28T13:49:17;8.07;;;3.70;;
49828;SDS011;35723;51.194;5.112;2023-02-28T14:04:57;7.68;;;3.75;;
49828;SDS011;35723;51.194;5.112;2023-02-28T14:07:31;9.38;;;4.18;;
49828;SDS011;35723;51.194;5.112;2023-02-28T14:10:03;7.97;;;3.50;;
49828;SDS011;35723;51.194;5.112;2023-02-28T14:17:55;8.70;;;4.28;;
49828;SDS011;35723;51.194;5.112;2023-02-28T14:20:25;8.60;;;4.10;;
49828;SDS011;35723;51.194;5.112;2023-02-28T14:31:20;10.18;;;4.40;;
49828;SDS011;35723;51.194;5.112;2023-02-28T14:37:00;11.88;;;4.13;;
49828;SDS011;35723;51.194;5.112;2023-02-28T14:39:28;10.02;;;4.15;;
49828;SDS011;35723;51.194;5.112;2023-02-28T14:41:58;9.30;;;3.95;;
49828;SDS011;35723;51.194;5.112;2023-02-28T14:44:28;12.13;;;4.18;;
49828;SDS011;35723;51.194;5.112;2023-02-28T14:46:58;8.20;;;4.07;;
49828;SDS011;35723;51.194;5.112;2023-02-28T14:50:03;8.63;;;4.15;;
49828;SDS011;35723;51.194;5.112;2023-02-28T14:52:24;10.05;;;4.30;;
49828;SDS011;35723;51.194;5.112;2023-02-28T14:54:53;9.02;;;3.90;;
49828;SDS011;35723;51.194;5.112;2023-02-28T14:57:28;10.18;;;4.18;;
49828;SDS011;35723;51.194;5.112;2023-02-28T15:00:15;11.57;;;4.05;;
49828;SDS011;35723;51.194;5.112;2023-02-28T15:02:48;10.55;;;4.22;;
49828;SDS011;35723;51.194;5.112;2023-02-28T15:07:42;10.20;;;3.92;;
49828;SDS011;35723;51.194;5.112;2023-02-28T15:10:15;8.05;;;3.72;;
49828;SDS011;35723;51.194;5.112;2023-02-28T15:12:58;8.13;;;3.75;;
49828;SDS011;35723;51.194;5.112;2023-02-28T15:15:50;9.00;;;4.07;;
49828;SDS011;35723;51.194;5.112;2023-02-28T15:18:26;12.05;;;4.00;;
49828;SDS011;35723;51.194;5.112;2023-02-28T15:20:58;8.80;;;4.13;;
49828;SDS011;35723;51.194;5.112;2023-02-28T15:23:28;11.95;;;4.32;;
49828;SDS011;35723;51.194;5.112;2023-02-28T15:25:55;10.93;;;4.10;;
49828;SDS011;35723;51.194;5.112;2023-02-28T15:28:21;8.18;;;4.07;;
49828;SDS011;35723;51.194;5.112;2023-02-28T15:30:53;11.60;;;4.60;;
49828;SDS011;35723;51.194;5.112;2023-02-28T15:33:31;11.23;;;4.60;;
49828;SDS011;35723;51.194;5.112;2023-02-28T15:38:45;10.30;;;4.35;;
49828;SDS011;35723;51.194;5.112;2023-02-28T15:41:22;11.35;;;4.53;;
49828;SDS011;35723;51.194;5.112;2023-02-28T15:44:13;13.02;;;4.68;;
49828;SDS011;35723;51.194;5.112;2023-02-28T15:46:40;10.15;;;4.50;;
49828;SDS011;35723;51.194;5.112;2023-02-28T15:49:17;12.48;;;4.70;;
49828;SDS011;35723;51.194;5.112;2023-02-28T15:51:45;17.55;;;7.28;;
49828;SDS011;35723;51.194;5.112;2023-02-28T15:54:15;15.35;;;6.18;;
49828;SDS011;35723;51.194;5.112;2023-02-28T15:56:57;11.10;;;5.00;;
49828;SDS011;35723;51.194;5.112;2023-02-28T15:59:33;16.13;;;4.93;;
49828;SDS011;35723;51.194;5.112;2023-02-28T16:05:00;10.85;;;5.05;;
49828;SDS011;35723;51.194;5.112;2023-02-28T16:07:23;11.25;;;4.63;;
49828;SDS011;35723;51.194;5.112;2023-02-28T16:09:49;12.75;;;4.47;;
49828;SDS011;35723;51.194;5.112;2023-02-28T16:12:15;11.73;;;4.57;;
49828;SDS011;35723;51.194;5.112;2023-02-28T16:14:41;12.27;;;4.60;;
49828;SDS011;35723;51.194;5.112;2023-02-28T16:17:12;9.95;;;4.28;;
49828;SDS011;35723;51.194;5.112;2023-02-28T16:19:49;11.38;;;4.40;;
49828;SDS011;35723;51.194;5.112;2023-02-28T16:22:15;9.60;;;4.40;;
49828;SDS011;35723;51.194;5.112;2023-02-28T16:24:40;11.65;;;4.30;;
49828;SDS011;35723;51.194;5.112;2023-02-28T16:27:06;10.38;;;4.50;;
49828;SDS011;35723;51.194;5.112;2023-02-28T16:29:39;9.27;;;4.57;;
49828;SDS011;35723;51.194;5.112;2023-02-28T16:32:05;10.98;;;4.90;;
49828;SDS011;35723;51.194;5.112;2023-02-28T16:34:31;14.43;;;4.97;;
49828;SDS011;35723;51.194;5.112;2023-02-28T16:36:57;10.45;;;4.60;;
49828;SDS011;35723;51.194;5.112;2023-02-28T16:39:23;9.38;;;4.55;;
49828;SDS011;35723;51.194;5.112;2023-02-28T16:41:49;10.63;;;4.70;;
49828;SDS011;35723;51.194;5.112;2023-02-28T16:44:23;11.48;;;4.75;;
49828;SDS011;35723;51.194;5.112;2023-02-28T16:46:55;11.95;;;4.60;;
49828;SDS011;35723;51.194;5.112;2023-02-28T16:49:21;9.10;;;4.40;;
49828;SDS011;35723;51.194;5.112;2023-02-28T16:51:46;12.18;;;5.00;;
49828;SDS011;35723;51.194;5.112;2023-02-28T16:54:12;13.85;;;5.25;;
49828;SDS011;35723;51.194;5.112;2023-02-28T16:56:39;9.80;;;4.90;;
49828;SDS011;35723;51.194;5.112;2023-02-28T16:59:08;16.80;;;5.13;;
49828;SDS011;35723;51.194;5.112;2023-02-28T17:01:35;13.10;;;5.18;;
49828;SDS011;35723;51.194;5.112;2023-02-28T17:04:00;12.20;;;5.03;;
49828;SDS011;35723;51.194;5.112;2023-02-28T17:06:27;12.82;;;5.10;;
49828;SDS011;35723;51.194;5.112;2023-02-28T17:08:54;12.02;;;5.43;;
49828;SDS011;35723;51.194;5.112;2023-02-28T17:11:21;12.85;;;5.60;;
49828;SDS011;35723;51.194;5.112;2023-02-28T17:13:47;13.70;;;5.80;;
49828;SDS011;35723;51.194;5.112;2023-02-28T17:16:32;15.93;;;5.82;;
49828;SDS011;35723;51.194;5.112;2023-02-28T17:19:00;13.43;;;5.75;;
49828;SDS011;35723;51.194;5.112;2023-02-28T17:21:28;14.48;;;5.53;;
49828;SDS011;35723;51.194;5.112;2023-02-28T17:23:54;13.38;;;5.18;;
49828;SDS011;35723;51.194;5.112;2023-02-28T17:26:21;13.85;;;5.90;;
49828;SDS011;35723;51.194;5.112;2023-02-28T17:28:49;12.75;;;6.20;;
49828;SDS011;35723;51.194;5.112;2023-02-28T17:31:16;15.07;;;6.60;;
49828;SDS011;35723;51.194;5.112;2023-02-28T17:33:42;16.05;;;6.78;;
49828;SDS011;35723;51.194;5.112;2023-02-28T17:36:10;14.90;;;6.20;;
49828;SDS011;35723;51.194;5.112;2023-02-28T17:38:46;14.23;;;6.20;;
49828;SDS011;35723;51.194;5.112;2023-02-28T17:41:12;13.15;;;5.50;;
49828;SDS011;35723;51.194;5.112;2023-02-28T17:43:38;11.85;;;5.43;;
49828;SDS011;35723;51.194;5.112;2023-02-28T17:46:04;14.98;;;5.90;;
49828;SDS011;35723;51.194;5.112;2023-02-28T17:48:31;14.32;;;5.82;;
49828;SDS011;35723;51.194;5.112;2023-02-28T17:50:57;13.70;;;5.63;;
49828;SDS011;35723;51.194;5.112;2023-02-28T17:53:23;16.85;;;6.43;;
49828;SDS011;35723;51.194;5.112;2023-02-28T18:44:30;18.98;;;7.88;;
49828;SDS011;35723;51.194;5.112;2023-02-28T19:03:22;14.95;;;6.80;;
49828;SDS011;35723;51.194;5.112;2023-02-28T19:15:59;18.88;;;7.55;;
49828;SDS011;35723;51.194;5.112;2023-02-28T19:18:46;18.88;;;7.47;;
49828;SDS011;35723;51.194;5.112;2023-02-28T19:21:14;19.10;;;8.40;;
49828;SDS011;35723;51.194;5.112;2023-02-28T19:30:10;18.05;;;8.25;;
49828;SDS011;35723;51.194;5.112;2023-02-28T19:36:07;18.20;;;8.70;;
49828;SDS011;35723;51.194;5.112;2023-02-28T19:42:07;16.98;;;8.10;;
49828;SDS011;35723;51.194;5.112;2023-02-28T19:47:56;20.27;;;9.75;;
49828;SDS011;35723;51.194;5.112;2023-02-28T19:53:07;24.33;;;10.30;;
49828;SDS011;35723;51.194;5.112;2023-02-28T19:55:33;23.33;;;10.48;;
49828;SDS011;35723;51.194;5.112;2023-02-28T19:58:02;20.40;;;10.43;;
49828;SDS011;35723;51.194;5.112;2023-02-28T20:03:31;24.73;;;9.93;;
49828;SDS011;35723;51.194;5.112;2023-02-28T20:05:57;20.35;;;9.55;;
49828;SDS011;35723;51.194;5.112;2023-02-28T20:08:44;21.73;;;9.73;;
49828;SDS011;35723;51.194;5.112;2023-02-28T20:14:37;23.00;;;9.80;;
49828;SDS011;35723;51.194;5.112;2023-02-28T20:17:03;19.38;;;9.10;;
49828;SDS011;35723;51.194;5.112;2023-02-28T20:19:28;19.80;;;9.50;;
49828;SDS011;35723;51.194;5.112;2023-02-28T20:21:55;21.52;;;9.80;;
49828;SDS011;35723;51.194;5.112;2023-02-28T20:27:44;19.67;;;9.70;;
49828;SDS011;35723;51.194;5.112;2023-02-28T20:30:10;24.17;;;10.02;;
49828;SDS011;35723;51.194;5.112;2023-02-28T20:32:41;19.70;;;9.82;;
49828;SDS011;35723;51.194;5.112;2023-02-28T20:38:37;23.25;;;11.13;;
49828;SDS011;35723;51.194;5.112;2023-02-28T20:41:03;25.27;;;11.18;;
49828;SDS011;35723;51.194;5.112;2023-02-28T20:43:30;22.77;;;10.63;;
49828;SDS011;35723;51.194;5.112;2023-02-28T20:46:04;24.77;;;11.18;;
49828;SDS011;35723;51.194;5.112;2023-02-28T20:51:52;26.05;;;11.43;;
49828;SDS011;35723;51.194;5.112;2023-02-28T20:57:43;23.80;;;11.85;;
49828;SDS011;35723;51.194;5.112;2023-02-28T21:02:54;23.67;;;11.40;;
49828;SDS011;35723;51.194;5.112;2023-02-28T21:05:19;25.10;;;12.40;;
49828;SDS011;35723;51.194;5.112;2023-02-28T21:11:08;24.67;;;12.73;;
49828;SDS011;35723;51.194;5.112;2023-02-28T21:13:38;25.85;;;12.57;;
49828;SDS011;35723;51.194;5.112;2023-02-28T21:16:05;29.88;;;13.73;;
49828;SDS011;35723;51.194;5.112;2023-02-28T21:18:33;27.77;;;13.73;;
49828;SDS011;35723;51.194;5.112;2023-02-28T21:24:37;26.95;;;11.63;;
49828;SDS011;35723;51.194;5.112;2023-02-28T21:27:03;22.30;;;11.18;;
49828;SDS011;35723;51.194;5.112;2023-02-28T21:29:28;24.05;;;11.48;;
49828;SDS011;35723;51.194;5.112;2023-02-28T21:31:54;23.77;;;11.50;;
49828;SDS011;35723;51.194;5.112;2023-02-28T21:34:20;21.15;;;10.85;;
49828;SDS011;35723;51.194;5.112;2023-02-28T21:36:46;24.88;;;11.15;;
49828;SDS011;35723;51.194;5.112;2023-02-28T21:39:16;23.35;;;11.63;;
49828;SDS011;35723;51.194;5.112;2023-02-28T21:41:44;25.17;;;11.68;;
49828;SDS011;35723;51.194;5.112;2023-02-28T21:44:10;27.02;;;12.63;;
49828;SDS011;35723;51.194;5.112;2023-02-28T21:46:42;49.83;;;12.80;;
49828;SDS011;35723;51.194;5.112;2023-02-28T21:49:09;24.85;;;11.63;;
49828;SDS011;35723;51.194;5.112;2023-02-28T21:51:35;27.25;;;12.13;;
49828;SDS011;35723;51.194;5.112;2023-02-28T21:54:01;26.08;;;12.10;;
49828;SDS011;35723;51.194;5.112;2023-02-28T21:56:30;24.00;;;11.10;;
49828;SDS011;35723;51.194;5.112;2023-02-28T21:58:57;26.52;;;11.93;;
49828;SDS011;35723;51.194;5.112;2023-02-28T22:01:31;25.17;;;12.07;;
49828;SDS011;35723;51.194;5.112;2023-02-28T22:03:59;21.33;;;10.85;;
49828;SDS011;35723;51.194;5.112;2023-02-28T22:06:27;22.73;;;11.10;;
49828;SDS011;35723;51.194;5.112;2023-02-28T22:08:55;22.98;;;10.90;;
49828;SDS011;35723;51.194;5.112;2023-02-28T22:11:22;22.77;;;11.35;;
49828;SDS011;35723;51.194;5.112;2023-02-28T22:13:50;24.73;;;11.30;;
49828;SDS011;35723;51.194;5.112;2023-02-28T22:16:18;23.17;;;11.55;;
49828;SDS011;35723;51.194;5.112;2023-02-28T22:18:44;24.13;;;11.10;;
49828;SDS011;35723;51.194;5.112;2023-02-28T22:21:11;21.65;;;10.85;;
49828;SDS011;35723;51.194;5.112;2023-02-28T22:23:38;23.48;;;10.95;;
49828;SDS011;35723;51.194;5.112;2023-02-28T22:26:06;22.52;;;10.93;;